Time;durP1;ratioP1;P1;durP2;ratioP2;P2;SDS_P1;SDS_P2;PMS_P1;PMS_P2;Temp;Humidity;BMP_temperature;BMP_pressure;BME280_temperature;BME280_humidity;BME280_pressure;Samples;Min_cycle;Max_cycle;Signal;HPM_P1;HPM_P2
2022/10/21 00:00:53;;;;;;;1.20;1.00;;;;;;;24.96;28.41;100772.22;4967747;28;20026;-84
2022/10/21 00:03:19;;;;;;;1.90;1.20;;;;;;;24.97;28.63;100768.38;4969305;28;20133;-84
2022/10/21 00:05:45;;;;;;;2.47;0.93;;;;;;;24.98;28.59;100777.41;4974396;28;20468;-83
2022/10/21 00:08:11;;;;;;;1.30;1.20;;;;;;;24.93;28.74;100780.97;4980394;28;20026;-84
2022/10/21 00:10:36;;;;;;;1.40;1.10;;;;;;;24.92;28.65;100782.88;4975953;28;20488;-84
2022/10/21 00:13:02;;;;;;;1.40;1.00;;;;;;;24.91;28.67;100800.38;4978064;28;20034;-84
2022/10/21 00:15:28;;;;;;;2.50;1.02;;;;;;;24.90;28.49;100795.97;4971502;28;20483;-84
2022/10/21 00:17:53;;;;;;;1.98;0.93;;;;;;;24.93;28.68;100789.16;4972976;28;20399;-84
2022/10/21 00:20:19;;;;;;;1.25;0.98;;;;;;;24.94;28.85;100793.53;4964937;28;20373;-84
2022/10/21 00:22:45;;;;;;;1.13;1.00;;;;;;;24.98;28.42;100785.63;4970992;28;20385;-83
2022/10/21 00:25:10;;;;;;;1.20;1.08;;;;;;;24.93;28.81;100789.16;4959026;28;20037;-84
2022/10/21 00:27:39;;;;;;;1.30;1.02;;;;;;;24.93;28.70;100787.25;4955083;28;20042;-84
2022/10/21 00:30:05;;;;;;;1.73;0.95;;;;;;;24.89;28.78;100767.03;4971087;28;20031;-84
2022/10/21 00:32:31;;;;;;;1.65;0.93;;;;;;;24.93;28.60;100773.56;4956080;28;20025;-84
2022/10/21 00:34:56;;;;;;;2.05;1.10;;;;;;;24.85;28.87;100768.69;4973189;28;20022;-84
2022/10/21 00:37:22;;;;;;;1.48;1.10;;;;;;;24.91;28.59;100778.50;4971937;28;20062;-84
2022/10/21 00:39:47;;;;;;;1.80;1.10;;;;;;;24.86;28.51;100775.75;4973478;28;20069;-84
2022/10/21 00:42:15;;;;;;;1.58;1.00;;;;;;;24.89;28.83;100780.69;4956426;28;20027;-84
2022/10/21 00:44:41;;;;;;;0.98;0.90;;;;;;;24.92;28.76;100776.56;4954949;28;20498;-84
2022/10/21 00:47:09;;;;;;;2.25;1.10;;;;;;;24.92;28.52;100779.31;4954805;28;20022;-84
2022/10/21 00:49:52;;;;;;;1.10;0.98;;;;;;;24.91;28.76;100764.81;4957826;28;20384;-84
2022/10/21 00:52:21;;;;;;;0.80;0.80;;;;;;;24.90;28.50;100757.72;4950662;28;20119;-84
2022/10/21 00:54:54;;;;;;;1.15;0.85;;;;;;;24.87;28.53;100760.19;4972691;28;20041;-84
2022/10/21 00:57:19;;;;;;;1.63;1.00;;;;;;;24.92;28.55;100769.22;4938014;28;20034;-84
2022/10/21 00:59:48;;;;;;;0.82;0.80;;;;;;;24.91;28.58;100759.34;4966970;28;20038;-84
2022/10/21 01:02:16;;;;;;;1.10;1.00;;;;;;;24.91;28.81;100764.00;4973317;28;20060;-84
2022/10/21 01:04:43;;;;;;;1.15;1.00;;;;;;;24.82;28.82;100738.31;4972814;28;20539;-84
2022/10/21 01:07:08;;;;;;;1.63;0.77;;;;;;;24.97;28.43;100762.09;4961085;28;20071;-84
2022/10/21 01:09:34;;;;;;;1.42;0.95;;;;;;;24.96;28.74;100760.44;4965002;28;20385;-84
2022/10/21 01:12:00;;;;;;;1.35;1.00;;;;;;;24.96;28.43;100763.16;4969055;28;20062;-84
2022/10/21 01:14:55;;;;;;;1.13;1.00;;;;;;;24.98;28.68;100764.56;4969942;28;20030;-84
2022/10/21 01:17:39;;;;;;;1.95;1.20;;;;;;;24.95;28.46;100756.91;4953247;28;20047;-84
2022/10/21 01:20:21;;;;;;;1.25;1.00;;;;;;;24.92;28.61;100744.59;4987798;28;20030;-84
2022/10/21 01:22:55;;;;;;;1.88;1.20;;;;;;;24.93;28.54;100745.41;4957658;28;20043;-84
2022/10/21 01:25:21;;;;;;;1.17;1.08;;;;;;;24.95;28.75;100736.94;4948816;28;20018;-84
2022/10/21 01:27:59;;;;;;;2.85;1.08;;;;;;;24.98;28.81;100739.13;4976759;28;20041;-84
2022/10/21 01:30:28;;;;;;;0.88;0.82;;;;;;;24.92;28.92;100733.69;4971075;28;20550;-84
2022/10/21 01:33:08;;;;;;;1.05;0.95;;;;;;;24.90;28.63;100724.91;4986962;28;20042;-84
2022/10/21 01:35:55;;;;;;;2.33;1.13;;;;;;;24.86;28.69;100723.81;4973855;28;20116;-84
2022/10/21 01:38:22;;;;;;;1.30;1.10;;;;;;;24.87;28.52;100728.22;4961227;28;20498;-84
2022/10/21 01:41:08;;;;;;;1.27;1.10;;;;;;;24.83;28.67;100724.38;4969789;28;20034;-84
2022/10/21 01:43:54;;;;;;;1.20;0.90;;;;;;;24.85;28.72;100715.91;4970188;28;20022;-84
2022/10/21 01:46:28;;;;;;;1.92;1.00;;;;;;;24.84;28.64;100719.75;4955834;28;20109;-84
2022/10/21 01:48:57;;;;;;;1.48;1.00;;;;;;;24.86;28.64;100725.75;4978290;28;20050;-84
2022/10/21 01:51:23;;;;;;;1.00;0.88;;;;;;;24.86;28.85;100718.34;4962727;28;20022;-84
2022/10/21 01:53:56;;;;;;;0.90;0.80;;;;;;;24.92;28.45;100728.22;4952768;28;20058;-84
2022/10/21 01:56:22;;;;;;;0.97;0.80;;;;;;;24.91;28.76;100729.28;4945180;28;20019;-84
2022/10/21 01:58:47;;;;;;;1.10;1.00;;;;;;;24.91;28.71;100723.81;4974466;28;20496;-84
2022/10/21 02:01:13;;;;;;;1.27;1.02;;;;;;;24.92;28.49;100732.84;4984579;28;20019;-84
2022/10/21 02:03:41;;;;;;;1.25;1.02;;;;;;;24.91;28.68;100736.69;4955048;28;20027;-84
2022/10/21 02:06:06;;;;;;;1.55;1.05;;;;;;;24.96;28.55;100733.09;4959402;28;20034;-84
2022/10/21 02:08:32;;;;;;;1.55;0.90;;;;;;;24.91;28.56;100732.03;4981211;28;20018;-84
2022/10/21 02:11:00;;;;;;;1.77;0.88;;;;;;;24.80;28.65;100724.94;4969427;28;20027;-84
2022/10/21 02:13:29;;;;;;;2.65;0.90;;;;;;;24.73;28.92;100711.56;4953053;28;20549;-84
2022/10/21 02:15:57;;;;;;;1.10;1.00;;;;;;;24.84;28.72;100736.97;4943119;28;20137;-85
2022/10/21 02:18:23;;;;;;;2.08;1.00;;;;;;;24.83;28.72;100739.97;4976661;28;20158;-84
2022/10/21 02:20:52;;;;;;;2.97;1.10;;;;;;;24.84;28.79;100736.97;4965409;28;20027;-84
2022/10/21 02:23:18;;;;;;;1.58;1.05;;;;;;;24.83;28.69;100735.31;4952695;28;20025;-84
2022/10/21 02:25:44;;;;;;;1.25;0.93;;;;;;;24.85;28.93;100733.13;4970948;28;20026;-84
2022/10/21 02:28:10;;;;;;;1.10;1.00;;;;;;;24.84;28.67;100726.03;4980772;28;20108;-84
2022/10/21 02:31:02;;;;;;;1.35;1.02;;;;;;;24.86;28.98;100725.75;4983677;28;20045;-84
2022/10/21 02:33:55;;;;;;;1.70;1.00;;;;;;;24.86;28.60;100720.28;4958729;28;20038;-84
2022/10/21 02:36:36;;;;;;;1.15;1.05;;;;;;;24.85;28.70;100714.00;4973620;28;20395;-84
2022/10/21 02:39:06;;;;;;;1.05;0.80;;;;;;;24.80;28.86;100704.97;4981625;28;20030;-84
2022/10/21 02:41:31;;;;;;;1.00;0.90;;;;;;;24.82;28.72;100710.97;4957078;28;20030;-84
2022/10/21 02:44:01;;;;;;;0.90;0.90;;;;;;;24.79;28.82;100704.16;4972044;28;20118;-84
2022/10/21 02:46:34;;;;;;;1.23;0.93;;;;;;;24.75;28.94;100694.88;4961052;28;20031;-84
2022/10/21 02:49:00;;;;;;;1.27;0.90;;;;;;;24.81;28.65;100709.34;4966287;28;20042;-84
2022/10/21 02:51:25;;;;;;;0.80;0.70;;;;;;;24.77;28.90;100692.69;4948689;28;20093;-84
2022/10/21 02:53:51;;;;;;;1.38;1.15;;;;;;;24.86;28.79;100703.88;4968308;28;21117;-84
2022/10/21 02:56:16;;;;;;;1.63;1.17;;;;;;;24.83;29.04;100707.97;4982673;28;20086;-84
2022/10/21 02:58:42;;;;;;;1.25;0.90;;;;;;;24.83;28.85;100710.69;4977353;28;20037;-84
2022/10/21 03:01:07;;;;;;;1.15;0.80;;;;;;;24.83;29.02;100707.97;4970848;28;20018;-84
2022/10/21 03:03:33;;;;;;;1.98;0.90;;;;;;;24.74;28.98;100695.97;4970406;28;20362;-84
2022/10/21 03:05:59;;;;;;;1.73;1.00;;;;;;;24.87;28.58;100714.53;4977196;28;20066;-84
2022/10/21 03:08:24;;;;;;;1.08;0.98;;;;;;;24.82;28.68;100706.34;4978036;28;20060;-84
2022/10/21 03:10:50;;;;;;;0.80;0.80;;;;;;;24.83;28.69;100705.25;4965838;28;20034;-84
2022/10/21 03:13:15;;;;;;;0.98;0.80;;;;;;;24.84;28.80;100711.53;4981258;28;20388;-84
2022/10/21 03:15:41;;;;;;;1.80;1.13;;;;;;;24.83;28.68;100707.97;4970629;28;20022;-84
2022/10/21 03:18:07;;;;;;;1.98;1.00;;;;;;;24.86;28.69;100712.91;4968942;28;20464;-84
2022/10/21 03:20:32;;;;;;;1.23;0.93;;;;;;;24.82;29.07;100710.97;4986971;28;20057;-84
2022/10/21 03:22:58;;;;;;;1.13;1.02;;;;;;;24.82;28.83;100705.50;4970438;28;20097;-84
2022/10/21 03:25:23;;;;;;;1.00;0.90;;;;;;;24.81;28.98;100710.16;4953050;28;20035;-84
2022/10/21 03:27:49;;;;;;;1.00;0.90;;;;;;;24.83;28.99;100707.97;4980491;28;20058;-84
2022/10/21 03:30:15;;;;;;;1.95;0.80;;;;;;;24.78;29.10;100710.72;4954734;28;20030;-84
2022/10/21 03:32:41;;;;;;;1.50;1.10;;;;;;;24.80;28.87;100708.53;4977239;28;20369;-84
2022/10/21 03:35:07;;;;;;;1.20;1.08;;;;;;;24.85;28.64;100703.06;4971370;28;20109;-84
2022/10/21 03:37:32;;;;;;;2.70;0.95;;;;;;;24.85;28.91;100704.97;4968404;28;20027;-85
2022/10/21 03:40:04;;;;;;;1.52;0.98;;;;;;;24.84;28.98;100711.53;4972014;28;20417;-84
2022/10/21 03:42:30;;;;;;;1.10;0.98;;;;;;;24.83;28.69;100701.69;4953000;28;20034;-84
2022/10/21 03:44:55;;;;;;;1.95;0.90;;;;;;;24.86;29.01;100699.22;4979886;28;20093;-84
2022/10/21 03:47:24;;;;;;;1.40;1.10;;;;;;;24.70;28.93;100683.97;4949971;28;20121;-84
2022/10/21 03:49:49;;;;;;;2.45;0.93;;;;;;;24.79;29.09;100701.44;4976167;28;20026;-84
2022/10/21 03:52:15;;;;;;;1.10;1.00;;;;;;;24.74;29.05;100695.97;4973719;28;20433;-85
2022/10/21 03:54:43;;;;;;;0.90;0.80;;;;;;;24.81;28.80;100701.97;4973618;28;20116;-84
2022/10/21 03:57:09;;;;;;;0.95;0.88;;;;;;;24.81;28.80;100709.34;4979279;28;20387;-84
2022/10/21 03:59:35;;;;;;;2.40;1.00;;;;;;;24.85;28.72;100714.00;4964306;28;20031;-84
2022/10/21 04:02:00;;;;;;;1.75;1.00;;;;;;;24.83;29.13;100710.69;4981163;28;20025;-84
2022/10/21 04:04:26;;;;;;;1.15;0.90;;;;;;;24.88;28.76;100709.88;4968572;28;20066;-84
2022/10/21 04:06:52;;;;;;;1.23;0.80;;;;;;;24.84;28.70;100704.16;4983979;28;20026;-84
2022/10/21 04:09:17;;;;;;;2.72;1.02;;;;;;;24.80;28.74;100708.53;4971668;28;20046;-84
2022/10/21 04:11:43;;;;;;;1.10;1.00;;;;;;;24.82;29.08;100710.97;4973903;28;20083;-84
2022/10/21 04:14:08;;;;;;;1.20;0.90;;;;;;;24.83;28.76;100713.44;4980825;28;20069;-84
2022/10/21 04:16:34;;;;;;;0.98;0.90;;;;;;;24.77;29.08;100698.16;4972100;28;20023;-85
2022/10/21 04:19:00;;;;;;;1.35;1.10;;;;;;;24.81;29.06;100704.69;4955984;28;20034;-84
2022/10/21 04:21:31;;;;;;;1.10;1.00;;;;;;;24.79;28.81;100711.56;4975311;28;20382;-84
2022/10/21 04:23:57;;;;;;;0.95;0.88;;;;;;;24.78;29.21;100702.50;4970881;28;20031;-84
2022/10/21 04:26:23;;;;;;;2.50;0.95;;;;;;;24.82;29.15;100700.88;4982274;28;20029;-84
2022/10/21 04:28:48;;;;;;;1.30;1.00;;;;;;;24.66;28.71;100674.66;4946224;28;20495;-84
2022/10/21 04:31:14;;;;;;;1.42;0.90;;;;;;;24.81;29.08;100707.44;4977395;28;20023;-84
2022/10/21 04:33:39;;;;;;;1.00;0.90;;;;;;;24.80;29.13;100703.09;4974704;28;20523;-84
2022/10/21 04:36:05;;;;;;;1.23;0.98;;;;;;;24.85;28.81;100700.34;4972888;28;20165;-84
2022/10/21 04:38:31;;;;;;;1.23;0.82;;;;;;;24.77;28.89;100698.16;4974876;28;20373;-84
2022/10/21 04:41:01;;;;;;;2.17;0.90;;;;;;;24.78;28.87;100697.03;4971160;28;20065;-84
2022/10/21 04:43:27;;;;;;;0.80;0.80;;;;;;;24.77;28.98;100689.97;4980285;28;20022;-84
2022/10/21 04:45:53;;;;;;;0.98;0.90;;;;;;;24.77;29.04;100700.88;4970356;28;20378;-84
2022/10/21 04:48:19;;;;;;;4.22;1.00;;;;;;;24.81;29.13;100696.50;4976271;28;20031;-84
2022/10/21 04:50:47;;;;;;;1.23;1.00;;;;;;;24.58;28.77;100667.00;4977779;28;20399;-84
2022/10/21 04:53:13;;;;;;;1.48;0.98;;;;;;;24.77;29.24;100694.59;4973643;28;20145;-84
2022/10/21 04:55:39;;;;;;;1.10;1.00;;;;;;;24.77;29.08;100695.44;4979193;28;20475;-84
2022/10/21 04:58:05;;;;;;;1.08;0.98;;;;;;;24.75;28.84;100689.41;4972702;28;20055;-84
2022/10/21 05:00:31;;;;;;;1.23;0.93;;;;;;;24.76;29.13;100691.03;4959625;28;20491;-84
2022/10/21 05:02:56;;;;;;;0.80;0.80;;;;;;;24.78;28.86;100693.50;4965401;28;20053;-84
2022/10/21 05:05:22;;;;;;;1.42;1.20;;;;;;;24.74;29.12;100685.03;4967108;28;20113;-84
2022/10/21 05:07:47;;;;;;;1.35;0.95;;;;;;;24.75;29.01;100686.69;4989583;28;20030;-84
2022/10/21 05:10:13;;;;;;;1.33;0.90;;;;;;;24.71;29.18;100688.31;4973572;28;20026;-84
2022/10/21 05:12:38;;;;;;;1.85;1.08;;;;;;;24.70;28.98;100681.22;4981807;28;20034;-85
2022/10/21 05:15:04;;;;;;;1.13;0.98;;;;;;;24.71;28.90;100678.19;4990327;28;20060;-84
2022/10/21 05:17:30;;;;;;;1.67;1.20;;;;;;;24.71;29.12;100683.66;4968208;28;20764;-84
2022/10/21 05:19:55;;;;;;;1.40;1.10;;;;;;;24.72;29.04;100681.75;4976168;28;20066;-84
2022/10/21 05:22:21;;;;;;;1.83;1.10;;;;;;;24.70;29.10;100686.69;4969082;28;20045;-84
2022/10/21 05:24:47;;;;;;;1.30;1.10;;;;;;;24.73;29.28;100691.59;4973564;28;20058;-84
2022/10/21 05:27:12;;;;;;;1.05;0.98;;;;;;;24.70;29.31;100689.44;4985099;28;20424;-84
2022/10/21 05:29:38;;;;;;;1.73;1.00;;;;;;;24.65;29.21;100683.97;4978070;28;20121;-83
2022/10/21 05:32:04;;;;;;;1.63;1.00;;;;;;;24.69;29.41;100685.03;4982306;28;20105;-84
2022/10/21 05:34:29;;;;;;;1.30;0.98;;;;;;;24.67;29.45;100688.03;4974978;28;20077;-84
2022/10/21 05:36:55;;;;;;;2.05;1.10;;;;;;;24.57;29.11;100679.03;4977706;28;20041;-84
2022/10/21 05:39:20;;;;;;;1.08;0.93;;;;;;;24.69;29.17;100695.97;4970083;28;20122;-84
2022/10/21 05:41:46;;;;;;;1.60;1.05;;;;;;;24.64;29.40;100690.50;4975414;28;20500;-84
2022/10/21 05:44:11;;;;;;;1.35;1.05;;;;;;;24.63;29.38;100689.69;4985255;28;20038;-84
2022/10/21 05:46:37;;;;;;;1.30;0.90;;;;;;;24.61;29.27;100688.31;4966366;28;20051;-84
2022/10/21 05:49:03;;;;;;;0.95;0.90;;;;;;;24.64;29.27;100688.59;4984337;28;20019;-84
2022/10/21 05:51:29;;;;;;;1.45;1.00;;;;;;;24.60;29.30;100687.50;4982732;28;20030;-84
2022/10/21 05:53:56;;;;;;;1.00;0.90;;;;;;;24.55;29.49;100685.59;4978195;28;20524;-84
2022/10/21 05:56:22;;;;;;;1.08;0.90;;;;;;;24.58;29.44;100686.13;4986516;28;20045;-84
2022/10/21 05:58:47;;;;;;;0.75;0.75;;;;;;;24.60;29.36;100689.44;4975522;28;20030;-84
2022/10/21 06:01:13;;;;;;;1.02;0.93;;;;;;;24.57;29.46;100681.78;4978906;28;20528;-84
2022/10/21 06:03:38;;;;;;;2.08;0.82;;;;;;;24.58;29.51;100683.41;4982497;28;20131;-84
2022/10/21 06:06:05;;;;;;;0.93;0.90;;;;;;;24.55;29.46;100691.06;4973310;28;20066;-84
2022/10/21 06:08:32;;;;;;;1.08;0.95;;;;;;;24.60;29.57;100686.69;4980031;28;20085;-84
2022/10/21 06:11:16;;;;;;;1.10;1.00;;;;;;;24.58;29.30;100695.16;4968693;28;20419;-84
2022/10/21 06:13:42;;;;;;;1.33;1.00;;;;;;;24.60;29.49;100687.50;4982231;28;20050;-84
2022/10/21 06:16:08;;;;;;;1.67;0.85;;;;;;;24.57;29.69;100688.06;4973535;28;20081;-84
2022/10/21 06:18:34;;;;;;;0.90;0.73;;;;;;;24.43;29.74;100681.47;4976778;28;20035;-84
2022/10/21 06:20:59;;;;;;;2.45;0.90;;;;;;;24.50;29.63;100688.28;4961727;28;20806;-84
2022/10/21 06:23:25;;;;;;;1.70;0.80;;;;;;;24.46;29.73;100681.75;4964262;28;20026;-84
2022/10/21 06:25:55;;;;;;;1.20;0.85;;;;;;;24.45;30.00;100691.03;4960117;28;20448;-84
2022/10/21 06:28:21;;;;;;;1.10;1.00;;;;;;;24.53;29.59;100693.22;4958361;28;20064;-84
2022/10/21 06:30:46;;;;;;;1.10;0.88;;;;;;;24.53;29.52;100695.94;4976415;28;20026;-84
2022/10/21 06:33:12;;;;;;;0.95;0.85;;;;;;;24.53;29.84;100693.22;4965550;28;20029;-84
2022/10/21 06:35:38;;;;;;;0.93;0.82;;;;;;;24.52;29.77;100699.75;4969724;28;20025;-84
2022/10/21 06:38:03;;;;;;;0.98;0.85;;;;;;;24.51;29.59;100698.13;4976883;28;20121;-84
2022/10/21 06:40:29;;;;;;;1.55;0.98;;;;;;;24.44;29.63;100691.28;4973228;28;20105;-84
2022/10/21 06:42:54;;;;;;;1.20;0.75;;;;;;;24.45;29.89;100695.69;4973252;28;20089;-84
2022/10/21 06:45:20;;;;;;;1.52;0.90;;;;;;;24.43;29.58;100708.78;4973540;28;20031;-84
2022/10/21 06:47:46;;;;;;;0.98;0.88;;;;;;;24.40;30.10;100699.22;4977949;28;21484;-84
2022/10/21 06:50:12;;;;;;;1.10;0.93;;;;;;;24.41;30.05;100700.88;4983877;28;20219;-84
2022/10/21 06:52:39;;;;;;;0.88;0.80;;;;;;;24.43;29.96;100695.94;4974400;28;20107;-84
2022/10/21 06:55:05;;;;;;;1.25;0.90;;;;;;;24.42;29.75;100691.56;4983774;28;20034;-84
2022/10/21 06:57:30;;;;;;;1.35;0.90;;;;;;;24.38;30.04;100706.88;4973513;28;20054;-84
2022/10/21 06:59:56;;;;;;;1.65;0.70;;;;;;;24.38;29.98;100698.66;4979327;28;20213;-84
2022/10/21 07:02:23;;;;;;;1.48;0.80;;;;;;;24.35;29.97;100685.56;4976361;28;20033;-84
2022/10/21 07:04:52;;;;;;;0.80;0.80;;;;;;;24.37;30.04;100691.59;4970597;28;20121;-84
2022/10/21 07:07:18;;;;;;;1.13;0.80;;;;;;;24.29;29.98;100673.81;4983437;28;20054;-84
2022/10/21 07:09:44;;;;;;;1.00;0.90;;;;;;;24.28;30.14;100683.09;4953841;28;20031;-84
2022/10/21 07:12:09;;;;;;;0.70;0.70;;;;;;;24.30;30.16;100693.75;4975420;28;20064;-84
2022/10/21 07:14:35;;;;;;;0.70;0.70;;;;;;;24.27;29.95;100703.31;4975175;28;20038;-84
2022/10/21 07:17:01;;;;;;;1.70;0.70;;;;;;;24.27;30.38;100707.97;4971417;28;20048;-84
2022/10/21 07:19:26;;;;;;;1.13;0.90;;;;;;;24.32;29.92;100705.25;4985641;28;20054;-84
2022/10/21 07:21:52;;;;;;;1.08;0.90;;;;;;;24.36;29.97;100700.88;4975391;28;20027;-84
2022/10/21 07:24:18;;;;;;;1.00;0.90;;;;;;;24.36;29.99;100698.94;4971625;28;20472;-84
2022/10/21 07:26:43;;;;;;;0.90;0.85;;;;;;;24.38;30.00;100701.41;4982104;28;20555;-84
2022/10/21 07:29:12;;;;;;;1.13;0.90;;;;;;;24.38;29.98;100710.41;4972049;28;20037;-84
2022/10/21 07:31:38;;;;;;;1.30;0.90;;;;;;;24.38;30.20;100701.41;4953269;28;20027;-84
2022/10/21 07:34:04;;;;;;;0.98;0.85;;;;;;;24.37;29.93;100700.59;4939915;28;20114;-84
2022/10/21 07:36:31;;;;;;;1.60;0.75;;;;;;;24.31;30.43;100703.59;4962395;28;20081;-84
2022/10/21 07:38:58;;;;;;;0.93;0.82;;;;;;;24.29;30.39;100698.41;4976807;28;20031;-84
2022/10/21 07:41:32;;;;;;;1.33;0.80;;;;;;;24.12;30.23;100687.72;4970020;28;20243;-84
2022/10/21 07:43:57;;;;;;;1.10;1.00;;;;;;;24.25;30.16;100707.41;4972553;28;20037;-84
2022/10/21 07:46:23;;;;;;;1.42;0.90;;;;;;;24.25;30.64;100721.03;4967431;28;20328;-84
2022/10/21 07:48:49;;;;;;;0.90;0.70;;;;;;;24.26;30.17;100726.25;4971338;28;20427;-84
2022/10/21 07:51:16;;;;;;;0.80;0.80;;;;;;;24.25;30.43;100723.78;4977459;28;20026;-84
2022/10/21 07:53:45;;;;;;;1.50;1.08;;;;;;;24.24;30.43;100722.16;4967643;28;20465;-84
2022/10/21 07:56:15;;;;;;;0.95;0.70;;;;;;;24.24;30.42;100713.97;4981323;28;20117;-85
2022/10/21 07:58:42;;;;;;;1.88;0.95;;;;;;;24.24;30.48;100711.22;4967996;28;20484;-84
2022/10/21 08:01:08;;;;;;;1.00;0.80;;;;;;;24.23;30.57;100710.41;4979765;28;20445;-84
2022/10/21 08:03:34;;;;;;;0.77;0.77;;;;;;;24.14;30.62;100701.91;4976603;28;20145;-84
2022/10/21 08:05:59;;;;;;;0.82;0.82;;;;;;;24.10;30.94;100716.41;4953641;28;20034;-84
2022/10/21 08:08:25;;;;;;;0.88;0.80;;;;;;;24.05;30.93;100722.66;4976812;28;20490;-84
2022/10/21 08:10:51;;;;;;;1.55;0.93;;;;;;;24.06;31.04;100731.66;4970740;28;20364;-84
2022/10/21 08:13:17;;;;;;;1.13;0.90;;;;;;;24.00;30.74;100723.47;4984564;28;20057;-84
2022/10/21 08:15:43;;;;;;;1.38;0.82;;;;;;;23.97;30.82;100729.47;4980494;28;20072;-84
2022/10/21 08:18:09;;;;;;;1.13;0.88;;;;;;;23.94;31.20;100746.38;4953685;28;20054;-84
2022/10/21 08:20:42;;;;;;;0.70;0.60;;;;;;;23.80;30.97;100723.38;4984145;28;20035;-84
2022/10/21 08:23:08;;;;;;;1.17;1.00;;;;;;;23.97;31.01;100755.94;4966955;28;20161;-84
2022/10/21 08:25:45;;;;;;;0.90;0.80;;;;;;;23.90;31.47;100766.28;4977081;28;20480;-84
2022/10/21 08:28:10;;;;;;;0.95;0.88;;;;;;;23.93;31.52;100779.41;4961273;28;20019;-84
2022/10/21 08:30:36;;;;;;;1.35;0.82;;;;;;;23.90;31.31;100783.47;4972259;28;20053;-84
2022/10/21 08:33:01;;;;;;;1.13;0.90;;;;;;;23.89;31.36;100781.03;4971106;28;20031;-84
2022/10/21 08:35:27;;;;;;;1.10;1.00;;;;;;;23.76;31.67;100777.66;4971510;28;20102;-84
2022/10/21 08:37:53;;;;;;;1.00;0.80;;;;;;;23.73;31.58;100761.84;4973189;28;20091;-84
2022/10/21 08:40:19;;;;;;;1.38;0.93;;;;;;;23.74;31.79;100768.94;4954159;28;20026;-84
2022/10/21 08:42:44;;;;;;;1.02;1.02;;;;;;;23.67;31.68;100752.00;4971180;28;20041;-84
2022/10/21 08:45:27;;;;;;;1.02;0.93;;;;;;;23.68;32.14;100756.38;4947489;28;20111;-84
2022/10/21 08:47:58;;;;;;;2.45;0.80;;;;;;;23.68;31.92;100761.81;4952458;28;20042;-84
2022/10/21 08:50:27;;;;;;;1.23;0.95;;;;;;;23.68;31.67;100763.72;4979451;28;20057;-84
2022/10/21 08:52:59;;;;;;;1.60;0.82;;;;;;;23.66;31.73;100774.88;4971046;28;20122;-84
2022/10/21 08:55:30;;;;;;;0.82;0.75;;;;;;;23.66;31.84;100760.44;4983506;28;20022;-84
2022/10/21 08:57:56;;;;;;;0.73;0.70;;;;;;;23.68;31.90;100750.06;4974486;28;20563;-84
2022/10/21 09:00:23;;;;;;;0.80;0.70;;;;;;;23.67;31.92;100746.53;4973609;28;20033;-84
2022/10/21 09:03:19;;;;;;;0.82;0.82;;;;;;;23.66;31.96;100757.72;4979847;28;20043;-84
2022/10/21 09:06:15;;;;;;;1.10;0.90;;;;;;;23.60;32.12;100751.41;4946402;28;20110;-84
2022/10/21 09:08:58;;;;;;;0.65;0.65;;;;;;;23.56;32.32;100750.28;4971099;28;20053;-85
2022/10/21 09:11:33;;;;;;;1.38;0.80;;;;;;;23.48;32.31;100743.44;4956227;28;20034;-85
2022/10/21 09:14:20;;;;;;;1.35;0.90;;;;;;;23.46;32.31;100733.88;4958288;28;20454;-84
2022/10/21 09:16:55;;;;;;;0.98;0.90;;;;;;;23.40;32.46;100728.41;4950917;28;20117;-84
2022/10/21 09:19:48;;;;;;;1.17;0.90;;;;;;;23.40;32.73;100730.31;4971525;28;20018;-84
2022/10/21 09:22:32;;;;;;;0.65;0.60;;;;;;;23.38;32.73;100733.28;4973869;28;20034;-84
2022/10/21 09:24:59;;;;;;;0.73;0.70;;;;;;;23.32;32.96;100738.97;4973058;28;20059;-84
2022/10/21 09:27:25;;;;;;;0.95;0.80;;;;;;;23.31;32.81;100731.91;4958522;28;20504;-84
2022/10/21 09:29:56;;;;;;;0.85;0.80;;;;;;;23.28;32.85;100735.16;4951257;28;20306;-84
2022/10/21 09:32:33;;;;;;;1.75;0.70;;;;;;;23.20;32.98;100718.22;4987775;28;20077;-84
2022/10/21 09:35:18;;;;;;;0.63;0.60;;;;;;;23.15;33.13;100733.72;4967272;28;20038;-84
2022/10/21 09:38:09;;;;;;;0.70;0.70;;;;;;;23.10;33.24;100725.50;4961658;28;20066;-85
2022/10/21 09:40:35;;;;;;;0.98;0.80;;;;;;;23.06;33.53;100720.59;4961038;28;20057;-84
2022/10/21 09:43:01;;;;;;;0.95;0.80;;;;;;;22.99;33.66;100714.50;4973194;28;20031;-84
2022/10/21 09:45:36;;;;;;;1.30;0.88;;;;;;;22.95;33.77;100727.00;4970928;28;20026;-84
2022/10/21 09:48:22;;;;;;;0.77;0.70;;;;;;;22.92;33.77;100730.28;4972971;28;20038;-84
2022/10/21 09:50:49;;;;;;;1.15;0.73;;;;;;;22.76;33.81;100714.88;4977059;28;20030;-84
2022/10/21 09:53:17;;;;;;;0.82;0.68;;;;;;;22.93;33.64;100737.34;4966472;28;20026;-84
2022/10/21 09:55:47;;;;;;;0.75;0.70;;;;;;;22.98;33.69;100733.84;4980267;28;20026;-84
2022/10/21 09:58:36;;;;;;;1.08;0.80;;;;;;;23.03;33.61;100734.69;4964755;28;20049;-84
2022/10/21 10:01:02;;;;;;;0.80;0.70;;;;;;;23.05;33.73;100729.84;4971891;28;20038;-84
2022/10/21 10:03:48;;;;;;;1.50;0.90;;;;;;;23.00;33.75;100724.31;4942490;28;20092;-85
2022/10/21 10:06:35;;;;;;;1.27;1.10;;;;;;;23.03;33.83;100726.53;4975926;28;20046;-84
2022/10/21 10:09:27;;;;;;;0.75;0.73;;;;;;;22.91;34.02;100728.63;4960238;28;20030;-84
2022/10/21 10:12:12;;;;;;;0.90;0.60;;;;;;;22.80;34.23;100738.63;4961672;28;20544;-85
2022/10/21 10:14:42;;;;;;;0.73;0.73;;;;;;;22.71;34.44;100728.47;4971748;28;20042;-85
2022/10/21 10:17:30;;;;;;;1.35;0.75;;;;;;;22.54;34.80;100723.97;4977412;28;20400;-84
2022/10/21 10:20:16;;;;;;;0.80;0.80;;;;;;;22.42;34.66;100716.00;4953828;28;20058;-85
2022/10/21 10:22:42;;;;;;;1.13;0.90;;;;;;;22.48;34.55;100725.81;4956823;28;20023;-85
2022/10/21 10:25:15;;;;;;;1.05;0.70;;;;;;;22.38;34.99;100727.66;4955120;28;20042;-85
2022/10/21 10:27:54;;;;;;;0.95;0.70;;;;;;;22.27;35.00;100723.97;4958685;28;20443;-85
2022/10/21 10:30:21;;;;;;;0.63;0.63;;;;;;;22.16;35.47;100725.75;4957500;28;20029;-85
2022/10/21 10:32:46;;;;;;;0.52;0.52;;;;;;;22.10;35.51;100724.09;4983079;28;20062;-85
2022/10/21 10:35:23;;;;;;;1.02;0.60;;;;;;;22.05;35.79;100721.31;4965761;28;20126;-85
2022/10/21 10:37:49;;;;;;;0.80;0.75;;;;;;;21.98;35.83;100726.13;4978741;28;20034;-85
2022/10/21 10:40:27;;;;;;;0.80;0.70;;;;;;;21.93;35.98;100724.97;4973873;28;20101;-85
2022/10/21 10:42:59;;;;;;;0.85;0.80;;;;;;;21.83;35.97;100716.69;4962808;28;20050;-85
2022/10/21 10:45:24;;;;;;;0.88;0.70;;;;;;;21.85;36.17;100717.28;4953336;28;20034;-85
2022/10/21 10:48:15;;;;;;;0.70;0.70;;;;;;;21.84;36.31;100726.53;4954006;28;20034;-85
2022/10/21 10:50:47;;;;;;;0.65;0.63;;;;;;;21.76;36.46;100716.88;4964531;28;20049;-84
2022/10/21 10:53:16;;;;;;;0.70;0.70;;;;;;;21.76;36.23;100711.44;4968437;28;20114;-85
2022/10/21 10:55:42;;;;;;;0.60;0.60;;;;;;;21.75;36.41;100711.72;4970690;28;20523;-85
2022/10/21 10:58:08;;;;;;;0.70;0.70;;;;;;;21.81;36.16;100713.41;4973880;28;20121;-85
2022/10/21 11:00:37;;;;;;;0.68;0.68;;;;;;;22.00;35.75;100713.91;4974586;28;20101;-85
2022/10/21 11:03:05;;;;;;;0.60;0.60;;;;;;;22.30;35.41;100709.84;4975117;28;20030;-84
2022/10/21 11:05:40;;;;;;;0.50;0.50;;;;;;;22.58;35.10;100714.22;4951340;28;20042;-85
2022/10/21 11:08:13;;;;;;;0.88;0.57;;;;;;;22.79;34.82;100715.19;4963973;28;20030;-85
2022/10/21 11:10:52;;;;;;;0.82;0.70;;;;;;;22.89;34.78;100700.81;4959658;28;20028;-84
2022/10/21 11:13:19;;;;;;;0.93;0.70;;;;;;;22.86;34.92;100698.63;4971198;28;20081;-84
2022/10/21 11:16:00;;;;;;;0.70;0.63;;;;;;;22.73;35.07;100694.41;4971055;28;20031;-85
2022/10/21 11:18:57;;;;;;;0.60;0.60;;;;;;;22.56;35.36;100691.88;4977963;28;20046;-84
2022/10/21 11:21:25;;;;;;;0.73;0.60;;;;;;;22.46;35.44;100695.31;4968395;28;20469;-84
2022/10/21 11:24:22;;;;;;;1.17;0.60;;;;;;;22.26;36.03;100703.28;4972407;28;20113;-84
2022/10/21 11:26:59;;;;;;;0.80;0.68;;;;;;;22.14;36.17;100692.53;4984631;28;20120;-84
2022/10/21 11:29:27;;;;;;;0.63;0.50;;;;;;;22.18;35.98;100695.56;4970362;28;20030;-84
2022/10/21 11:32:01;;;;;;;0.95;0.65;;;;;;;22.07;36.32;100697.38;4961001;28;20038;-84
2022/10/21 11:34:34;;;;;;;0.50;0.50;;;;;;;22.01;36.17;100699.22;4967338;28;20030;-84